Anvik Airport Anvik US
ICAO: PANV
IATA:
Category: Medium
Scheduled Services:

Elevation: 291 ft
TransAlt. 18000 ft.

Airport Communications:
AWOS 3:133.55
ANCHORAGE CNTR:135.7
KENAI RDO:122.4
CTAF/UNICOM:122.7

PANV Zoom In..

Runways:

(A) RW 17 length 4000 ft width 75 ft
---- / hdg 172

(B) RW 35 length 4000 ft width 75 ft
---- / hdg 352

Location; PANV
Day. 30 / Time. 22.18 Zulu
* Altimeter: 29.14
* Temperature: -14° c. -6.8°f.
* Wind from: 020° Speed 06 kn.
Dewpoint: -16° c.
Visibility: 5 Statute Miles.
Clouds: Few 2200 ft.
Clouds: Broken 3500 ft.
Clouds: Overcast 4400 ft.
Conditions: Light Snow.Conditions: Mist.

PANV 302218Z AUTO 02006KT 5SM -SN BR FEW022 BKN035 OVC044 M14/M16 A2914 RMK AO2 P0000 FZRANO TSNO

Going to: --> -->


Wind From 020°
Speed 06 kn.

 
 
jpsmedia worldairports.se 2020   terms of use